Accueil
METAR-TAF:

METAR-TAF

Aéroports :

Plate-forme pétrolière

Euro, Pays-Bas

latitude: 51-59-52N, longitude: 3-16-30E, altitude: 18 m

Observation

Le bulletin a été fait il y a 37 minutes, à 18:55 UTC
Vent 8 kt de nord
Température 13°C
Humidité 67%
Pression 1027 hPa
Visibilité 10 km ou plus

METAR: EHSA 191855Z AUTO 35008KT 9999 ///////// 13/07 Q1027 W15/H5

Heure: 21:32 (19:32 UTC)


TAF: absent

Observations et prévisions météorologiques de plus de 4000 aéroports (messages METAR et TAF).

Les stations disponibles sont représentées par des disques jaunes et rouges sur la carte.

Passer la souris dessus pour voir le nom de la station.

Cliquer dessus pour voir les observations et prévisions météorologiques.

Pour changer de carte: cliquez sur les boutons verts avec une croix noire pour zoomer, sur le bouton vert avec un tiret pour effectuer un zoom arrière, ou sur les flèches vertes pour les cartes adjacentes.


METAR-TAF: